sensor_id;sensor_type;location;lat;lon;timestamp;pressure;altitude;pressure_sealevel;temperature;humidity
46408;BME280;32110;45.724;21.276;2023-04-15T03:09:01;99658.31;;;6.59;nan
46408;BME280;32110;45.724;21.276;2023-04-15T03:50:17;99657.88;;;6.44;nan
46408;BME280;32110;45.724;21.276;2023-04-15T05:17:23;99742.50;;;6.50;nan
46408;BME280;32110;45.724;21.276;2023-04-15T05:19:49;99732.50;;;6.47;nan
46408;BME280;32110;45.724;21.276;2023-04-15T05:22:14;99739.03;;;6.56;nan
46408;BME280;32110;45.724;21.276;2023-04-15T05:24:40;99748.00;;;6.67;nan
46408;BME280;32110;45.724;21.276;2023-04-15T05:27:05;99752.75;;;6.76;nan
46408;BME280;32110;45.724;21.276;2023-04-15T05:29:32;99753.69;;;6.82;nan
46408;BME280;32110;45.724;21.276;2023-04-15T05:31:58;99757.28;;;6.88;nan
46408;BME280;32110;45.724;21.276;2023-04-15T05:34:23;99754.81;;;6.93;nan
46408;BME280;32110;45.724;21.276;2023-04-15T05:36:49;99738.50;;;6.91;nan
46408;BME280;32110;45.724;21.276;2023-04-15T05:39:14;99755.03;;;7.10;nan
46408;BME280;32110;45.724;21.276;2023-04-15T05:41:40;99746.16;;;7.11;nan
46408;BME280;32110;45.724;21.276;2023-04-15T05:44:05;99761.72;;;7.24;nan
46408;BME280;32110;45.724;21.276;2023-04-15T05:46:31;99751.19;;;7.31;nan
46408;BME280;32110;45.724;21.276;2023-04-15T05:48:56;99799.81;;;7.75;nan
46408;BME280;32110;45.724;21.276;2023-04-15T05:51:22;99753.34;;;7.52;nan
46408;BME280;32110;45.724;21.276;2023-04-15T05:53:47;99748.84;;;7.59;nan
46408;BME280;32110;45.724;21.276;2023-04-15T05:56:12;99753.09;;;7.72;nan
46408;BME280;32110;45.724;21.276;2023-04-15T05:58:38;99762.25;;;7.81;nan
46408;BME280;32110;45.724;21.276;2023-04-15T06:01:03;99769.78;;;7.89;nan
46408;BME280;32110;45.724;21.276;2023-04-15T06:03:29;99752.41;;;7.95;nan
46408;BME280;32110;45.724;21.276;2023-04-15T06:05:55;99758.59;;;8.13;nan
46408;BME280;32110;45.724;21.276;2023-04-15T06:08:20;99771.06;;;8.29;nan
46408;BME280;32110;45.724;21.276;2023-04-15T06:10:46;99773.59;;;8.36;nan
46408;BME280;32110;45.724;21.276;2023-04-15T06:13:11;99773.28;;;8.44;nan
46408;BME280;32110;45.724;21.276;2023-04-15T06:15:37;99789.75;;;8.63;nan
46408;BME280;32110;45.724;21.276;2023-04-15T06:18:02;99787.22;;;8.68;nan
46408;BME280;32110;45.724;21.276;2023-04-15T06:20:28;99793.97;;;8.76;nan
46408;BME280;32110;45.724;21.276;2023-04-15T06:22:53;99786.56;;;8.84;nan
46408;BME280;32110;45.724;21.276;2023-04-15T06:25:18;99799.69;;;9.08;nan
46408;BME280;32110;45.724;21.276;2023-04-15T06:27:44;99799.09;;;9.18;nan
46408;BME280;32110;45.724;21.276;2023-04-15T06:30:09;99794.16;;;9.21;nan
46408;BME280;32110;45.724;21.276;2023-04-15T06:32:35;99783.44;;;9.23;nan
46408;BME280;32110;45.724;21.276;2023-04-15T06:35:00;99785.94;;;9.29;nan
46408;BME280;32110;45.724;21.276;2023-04-15T06:37:26;99786.38;;;9.38;nan
46408;BME280;32110;45.724;21.276;2023-04-15T06:39:52;99780.69;;;9.41;nan
46408;BME280;32110;45.724;21.276;2023-04-15T06:42:17;99781.34;;;9.48;nan
46408;BME280;32110;45.724;21.276;2023-04-15T06:44:42;99768.31;;;9.53;nan
46408;BME280;32110;45.724;21.276;2023-04-15T06:47:08;99781.94;;;9.67;nan
46408;BME280;32110;45.724;21.276;2023-04-15T06:49:33;99788.69;;;9.75;nan
46408;BME280;32110;45.724;21.276;2023-04-15T06:51:59;99778.00;;;9.82;nan
46408;BME280;32110;45.724;21.276;2023-04-15T06:54:25;99781.56;;;9.87;nan
46408;BME280;32110;45.724;21.276;2023-04-15T10:36:19;99836.16;;;14.58;nan
46408;BME280;32110;45.724;21.276;2023-04-15T10:41:15;99825.81;;;14.52;nan
46408;BME280;32110;45.724;21.276;2023-04-15T10:43:47;99836.41;;;14.62;nan
46408;BME280;32110;45.724;21.276;2023-04-15T10:46:17;99832.97;;;14.66;nan
46408;BME280;32110;45.724;21.276;2023-04-15T10:48:47;99828.75;;;14.76;nan
46408;BME280;32110;45.724;21.276;2023-04-15T10:51:13;99834.78;;;14.92;nan
46408;BME280;32110;45.724;21.276;2023-04-15T10:53:41;99829.22;;;14.98;nan
46408;BME280;32110;45.724;21.276;2023-04-15T11:12:07;99829.16;;;15.29;nan
46408;BME280;32110;45.724;21.276;2023-04-15T11:14:38;99835.00;;;15.26;nan
46408;BME280;32110;45.724;21.276;2023-04-15T11:37:03;99826.25;;;15.30;nan
46408;BME280;32110;45.724;21.276;2023-04-15T12:06:24;99812.22;;;15.85;nan
46408;BME280;32110;45.724;21.276;2023-04-15T12:23:37;99788.16;;;15.76;nan
46408;BME280;32110;45.724;21.276;2023-04-15T12:26:05;99779.91;;;15.72;nan
46408;BME280;32110;45.724;21.276;2023-04-15T12:28:33;99789.66;;;15.92;nan
46408;BME280;32110;45.724;21.276;2023-04-15T12:31:00;99794.84;;;16.08;nan
46408;BME280;32110;45.724;21.276;2023-04-15T12:33:34;99795.03;;;16.22;nan
46408;BME280;32110;45.724;21.276;2023-04-15T12:35:59;99787.75;;;16.32;nan
46408;BME280;32110;45.724;21.276;2023-04-15T12:43:15;99781.72;;;16.56;nan
46408;BME280;32110;45.724;21.276;2023-04-15T12:45:41;99769.16;;;16.62;nan
46408;BME280;32110;45.724;21.276;2023-04-15T12:48:06;99771.56;;;16.63;nan
46408;BME280;32110;45.724;21.276;2023-04-15T12:50:34;99790.88;;;16.74;nan
46408;BME280;32110;45.724;21.276;2023-04-15T12:52:59;99792.81;;;16.63;nan
46408;BME280;32110;45.724;21.276;2023-04-15T12:55:25;99794.38;;;16.69;nan
46408;BME280;32110;45.724;21.276;2023-04-15T12:57:50;99802.00;;;16.76;nan
46408;BME280;32110;45.724;21.276;2023-04-15T13:00:16;99786.03;;;16.76;nan
46408;BME280;32110;45.724;21.276;2023-04-15T13:02:44;99795.59;;;16.82;nan
46408;BME280;32110;45.724;21.276;2023-04-15T13:05:10;99803.34;;;16.78;nan
46408;BME280;32110;45.724;21.276;2023-04-15T13:07:35;99804.94;;;16.74;nan
46408;BME280;32110;45.724;21.276;2023-04-15T13:41:36;99795.59;;;16.82;nan
46408;BME280;32110;45.724;21.276;2023-04-15T13:44:02;99781.00;;;16.79;nan
46408;BME280;32110;45.724;21.276;2023-04-15T13:56:13;99824.09;;;16.76;nan
46408;BME280;32110;45.724;21.276;2023-04-15T13:58:39;99762.16;;;16.71;nan
46408;BME280;32110;45.724;21.276;2023-04-15T15:47:46;99839.16;;;16.52;nan
46408;BME280;32110;45.724;21.276;2023-04-15T15:50:12;99831.69;;;16.54;nan
46408;BME280;32110;45.724;21.276;2023-04-15T15:52:38;99825.88;;;16.52;nan
46408;BME280;32110;45.724;21.276;2023-04-15T15:55:04;99836.22;;;16.53;nan
46408;BME280;32110;45.724;21.276;2023-04-15T15:57:30;99822.97;;;16.48;nan
46408;BME280;32110;45.724;21.276;2023-04-15T15:59:56;99824.34;;;16.46;nan
46408;BME280;32110;45.724;21.276;2023-04-15T16:02:22;99825.13;;;16.46;nan
46408;BME280;32110;45.724;21.276;2023-04-15T16:04:47;99825.91;;;16.47;nan
46408;BME280;32110;45.724;21.276;2023-04-15T16:07:14;99821.72;;;16.41;nan
46408;BME280;32110;45.724;21.276;2023-04-15T16:09:40;99829.97;;;16.39;nan
46408;BME280;32110;45.724;21.276;2023-04-15T16:12:05;99801.13;;;16.22;nan
46408;BME280;32110;45.724;21.276;2023-04-15T16:14:30;99825.47;;;16.34;nan
46408;BME280;32110;45.724;21.276;2023-04-15T16:16:56;99825.50;;;16.29;nan
46408;BME280;32110;45.724;21.276;2023-04-15T16:19:22;99823.41;;;16.26;nan
46408;BME280;32110;45.724;21.276;2023-04-15T16:21:47;99809.69;;;16.14;nan
46408;BME280;32110;45.724;21.276;2023-04-15T16:24:13;99827.16;;;16.20;nan
46408;BME280;32110;45.724;21.276;2023-04-15T16:26:39;99821.38;;;16.13;nan
46408;BME280;32110;45.724;21.276;2023-04-15T16:29:05;99828.81;;;16.11;nan
46408;BME280;32110;45.724;21.276;2023-04-15T16:31:30;99827.53;;;16.03;nan
46408;BME280;32110;45.724;21.276;2023-04-15T16:33:56;99822.81;;;15.95;nan
46408;BME280;32110;45.724;21.276;2023-04-15T16:36:22;99834.22;;;15.95;nan
46408;BME280;32110;45.724;21.276;2023-04-15T16:38:47;99838.50;;;15.91;nan
46408;BME280;32110;45.724;21.276;2023-04-15T16:41:13;99849.66;;;15.88;nan
46408;BME280;32110;45.724;21.276;2023-04-15T16:43:39;99849.69;;;15.83;nan
46408;BME280;32110;45.724;21.276;2023-04-15T16:46:05;99841.25;;;15.76;nan
46408;BME280;32110;45.724;21.276;2023-04-15T16:48:30;99834.59;;;15.68;nan
46408;BME280;32110;45.724;21.276;2023-04-15T16:50:56;99848.94;;;15.72;nan
46408;BME280;32110;45.724;21.276;2023-04-15T16:53:21;99848.94;;;15.67;nan
46408;BME280;32110;45.724;21.276;2023-04-15T16:55:47;99859.31;;;15.64;nan
46408;BME280;32110;45.724;21.276;2023-04-15T16:58:12;99850.84;;;15.57;nan
46408;BME280;32110;45.724;21.276;2023-04-15T17:00:38;99851.91;;;15.50;nan
46408;BME280;32110;45.724;21.276;2023-04-15T17:03:03;99861.22;;;15.48;nan
46408;BME280;32110;45.724;21.276;2023-04-15T17:05:29;99857.53;;;15.39;nan
46408;BME280;32110;45.724;21.276;2023-04-15T17:07:55;99878.19;;;15.42;nan
46408;BME280;32110;45.724;21.276;2023-04-15T17:10:20;99835.59;;;15.02;nan
46408;BME280;32110;45.724;21.276;2023-04-15T17:12:46;99885.41;;;15.31;nan
46408;BME280;32110;45.724;21.276;2023-04-15T17:15:11;99886.75;;;15.23;nan
46408;BME280;32110;45.724;21.276;2023-04-15T17:17:37;99893.09;;;15.17;nan
46408;BME280;32110;45.724;21.276;2023-04-15T17:20:02;99881.44;;;15.08;nan
46408;BME280;32110;45.724;21.276;2023-04-15T17:22:28;99881.19;;;15.15;nan
46408;BME280;32110;45.724;21.276;2023-04-15T17:24:53;99901.59;;;15.24;nan
46408;BME280;32110;45.724;21.276;2023-04-15T17:27:19;99902.13;;;15.16;nan
46408;BME280;32110;45.724;21.276;2023-04-15T17:29:45;99915.94;;;15.18;nan
46408;BME280;32110;45.724;21.276;2023-04-15T17:32:11;99910.63;;;15.08;nan
46408;BME280;32110;45.724;21.276;2023-04-15T17:34:36;99917.53;;;15.04;nan
46408;BME280;32110;45.724;21.276;2023-04-15T17:37:02;99924.16;;;14.96;nan
46408;BME280;32110;45.724;21.276;2023-04-15T17:39:27;99911.97;;;14.85;nan
46408;BME280;32110;45.724;21.276;2023-04-15T17:41:53;99930.00;;;14.83;nan
46408;BME280;32110;45.724;21.276;2023-04-15T17:44:18;99930.50;;;14.75;nan
46408;BME280;32110;45.724;21.276;2023-04-15T17:46:44;99932.34;;;14.69;nan
46408;BME280;32110;45.724;21.276;2023-04-15T17:49:10;99937.13;;;14.62;nan
46408;BME280;32110;45.724;21.276;2023-04-15T17:51:35;99937.88;;;14.52;nan
46408;BME280;32110;45.724;21.276;2023-04-15T17:54:01;99947.13;;;14.44;nan
46408;BME280;32110;45.724;21.276;2023-04-15T17:56:29;99957.97;;;14.43;nan
46408;BME280;32110;45.724;21.276;2023-04-15T17:58:55;99959.53;;;14.34;nan
46408;BME280;32110;45.724;21.276;2023-04-15T18:01:21;99968.78;;;14.31;nan
46408;BME280;32110;45.724;21.276;2023-04-15T18:03:48;99959.50;;;14.18;nan
46408;BME280;32110;45.724;21.276;2023-04-15T18:06:14;99958.38;;;14.04;nan
46408;BME280;32110;45.724;21.276;2023-04-15T18:08:41;99971.84;;;13.97;nan
46408;BME280;32110;45.724;21.276;2023-04-15T18:11:06;99971.28;;;13.90;nan
46408;BME280;32110;45.724;21.276;2023-04-15T18:13:32;99964.09;;;13.80;nan
46408;BME280;32110;45.724;21.276;2023-04-15T18:15:57;99972.53;;;13.77;nan
46408;BME280;32110;45.724;21.276;2023-04-15T18:18:25;99969.06;;;13.72;nan
46408;BME280;32110;45.724;21.276;2023-04-15T18:20:50;99977.81;;;13.72;nan
46408;BME280;32110;45.724;21.276;2023-04-15T18:23:16;99995.22;;;13.63;nan
46408;BME280;32110;45.724;21.276;2023-04-15T18:25:41;99992.44;;;13.48;nan
46408;BME280;32110;45.724;21.276;2023-04-15T18:28:10;99995.44;;;13.24;nan
46408;BME280;32110;45.724;21.276;2023-04-15T18:30:36;99989.69;;;13.00;nan
46408;BME280;32110;45.724;21.276;2023-04-15T18:33:01;99995.59;;;12.58;nan
46408;BME280;32110;45.724;21.276;2023-04-15T18:35:27;100009.84;;;12.57;nan
46408;BME280;32110;45.724;21.276;2023-04-15T18:37:56;100020.16;;;12.37;nan
46408;BME280;32110;45.724;21.276;2023-04-15T18:40:22;100014.38;;;12.40;nan
46408;BME280;32110;45.724;21.276;2023-04-15T18:42:48;100006.22;;;12.19;nan
46408;BME280;32110;45.724;21.276;2023-04-15T18:45:13;100019.78;;;12.28;nan
46408;BME280;32110;45.724;21.276;2023-04-15T18:47:41;100009.34;;;12.16;nan
46408;BME280;32110;45.724;21.276;2023-04-15T18:50:07;100012.75;;;12.11;nan
46408;BME280;32110;45.724;21.276;2023-04-15T18:52:35;100005.00;;;12.05;nan
46408;BME280;32110;45.724;21.276;2023-04-15T18:55:03;100010.34;;;12.10;nan
46408;BME280;32110;45.724;21.276;2023-04-15T18:57:36;100015.63;;;12.10;nan
46408;BME280;32110;45.724;21.276;2023-04-15T19:00:08;99970.94;;;11.86;nan
46408;BME280;32110;45.724;21.276;2023-04-15T19:02:33;100013.53;;;12.12;nan
46408;BME280;32110;45.724;21.276;2023-04-15T19:04:59;100012.25;;;12.15;nan
46408;BME280;32110;45.724;21.276;2023-04-15T19:07:29;100012.75;;;12.11;nan
46408;BME280;32110;45.724;21.276;2023-04-15T19:09:56;99991.47;;;12.01;nan
46408;BME280;32110;45.724;21.276;2023-04-15T19:12:22;100001.56;;;12.04;nan
46408;BME280;32110;45.724;21.276;2023-04-15T19:14:47;100009.88;;;11.96;nan
46408;BME280;32110;45.724;21.276;2023-04-15T19:17:13;100003.97;;;11.89;nan
46408;BME280;32110;45.724;21.276;2023-04-15T19:19:38;100020.38;;;11.91;nan
46408;BME280;32110;45.724;21.276;2023-04-15T19:22:03;100021.88;;;11.87;nan
46408;BME280;32110;45.724;21.276;2023-04-15T19:24:30;100022.28;;;11.79;nan
46408;BME280;32110;45.724;21.276;2023-04-15T19:26:55;100019.97;;;11.65;nan
46408;BME280;32110;45.724;21.276;2023-04-15T19:29:22;99990.47;;;11.35;nan
46408;BME280;32110;45.724;21.276;2023-04-15T19:31:48;100032.38;;;11.48;nan
46408;BME280;32110;45.724;21.276;2023-04-15T19:34:14;100017.91;;;11.34;nan
46408;BME280;32110;45.724;21.276;2023-04-15T19:36:40;100022.88;;;11.30;nan
46408;BME280;32110;45.724;21.276;2023-04-15T19:39:05;100019.94;;;11.15;nan
46408;BME280;32110;45.724;21.276;2023-04-15T19:41:31;100015.09;;;11.06;nan
46408;BME280;32110;45.724;21.276;2023-04-15T19:43:56;100028.56;;;11.10;nan
46408;BME280;32110;45.724;21.276;2023-04-15T19:46:22;100026.63;;;11.05;nan
46408;BME280;32110;45.724;21.276;2023-04-15T19:48:47;100014.66;;;10.98;nan
46408;BME280;32110;45.724;21.276;2023-04-15T19:51:13;100014.78;;;10.91;nan
46408;BME280;32110;45.724;21.276;2023-04-15T19:53:38;100010.41;;;10.80;nan
46408;BME280;32110;45.724;21.276;2023-04-15T19:56:05;100013.56;;;10.82;nan
46408;BME280;32110;45.724;21.276;2023-04-15T19:58:30;100015.66;;;10.80;nan
46408;BME280;32110;45.724;21.276;2023-04-15T20:00:57;100014.63;;;10.81;nan
46408;BME280;32110;45.724;21.276;2023-04-15T20:03:22;100021.47;;;10.82;nan
46408;BME280;32110;45.724;21.276;2023-04-15T20:05:48;100008.13;;;10.72;nan
46408;BME280;32110;45.724;21.276;2023-04-15T20:08:13;100020.69;;;10.81;nan
46408;BME280;32110;45.724;21.276;2023-04-15T20:10:39;100022.19;;;10.77;nan
46408;BME280;32110;45.724;21.276;2023-04-15T20:13:04;100025.16;;;10.81;nan
46408;BME280;32110;45.724;21.276;2023-04-15T20:15:29;100032.56;;;10.84;nan
46408;BME280;32110;45.724;21.276;2023-04-15T20:17:55;100028.94;;;10.85;nan
46408;BME280;32110;45.724;21.276;2023-04-15T20:20:21;100029.06;;;10.78;nan
46408;BME280;32110;45.724;21.276;2023-04-15T20:22:47;100035.56;;;10.88;nan
46408;BME280;32110;45.724;21.276;2023-04-15T20:25:13;100039.56;;;10.90;nan
46408;BME280;32110;45.724;21.276;2023-04-15T20:27:38;100017.47;;;10.79;nan
46408;BME280;32110;45.724;21.276;2023-04-15T20:30:04;100022.28;;;10.82;nan
46408;BME280;32110;45.724;21.276;2023-04-15T20:32:31;100040.13;;;10.92;nan
46408;BME280;32110;45.724;21.276;2023-04-15T20:35:03;100040.34;;;10.91;nan
46408;BME280;32110;45.724;21.276;2023-04-15T20:37:30;100040.69;;;10.94;nan
46408;BME280;32110;45.724;21.276;2023-04-15T20:40:00;100044.22;;;11.00;nan
46408;BME280;32110;45.724;21.276;2023-04-15T20:42:26;100049.78;;;11.03;nan
46408;BME280;32110;45.724;21.276;2023-04-15T20:44:51;100033.00;;;10.93;nan
46408;BME280;32110;45.724;21.276;2023-04-15T20:47:17;100040.31;;;11.02;nan
46408;BME280;32110;45.724;21.276;2023-04-15T20:49:42;100049.91;;;11.09;nan
46408;BME280;32110;45.724;21.276;2023-04-15T20:52:08;100043.59;;;11.10;nan
46408;BME280;32110;45.724;21.276;2023-04-15T20:54:33;100050.88;;;11.19;nan
46408;BME280;32110;45.724;21.276;2023-04-15T20:57:01;100053.28;;;11.21;nan
46408;BME280;32110;45.724;21.276;2023-04-15T20:59:26;100041.81;;;11.15;nan
46408;BME280;32110;45.724;21.276;2023-04-15T21:01:52;100041.59;;;11.17;nan
46408;BME280;32110;45.724;21.276;2023-04-15T21:04:17;100050.16;;;11.24;nan
46408;BME280;32110;45.724;21.276;2023-04-15T21:06:43;100046.38;;;11.20;nan
46408;BME280;32110;45.724;21.276;2023-04-15T21:09:09;100042.97;;;11.19;nan
46408;BME280;32110;45.724;21.276;2023-04-15T21:11:34;100041.38;;;11.18;nan
46408;BME280;32110;45.724;21.276;2023-04-15T21:14:00;100034.97;;;11.14;nan
46408;BME280;32110;45.724;21.276;2023-04-15T21:16:25;100047.19;;;11.20;nan
46408;BME280;32110;45.724;21.276;2023-04-15T21:18:51;100044.31;;;11.22;nan
46408;BME280;32110;45.724;21.276;2023-04-15T21:21:19;100042.97;;;11.19;nan
46408;BME280;32110;45.724;21.276;2023-04-15T21:23:44;100042.97;;;11.19;nan
46408;BME280;32110;45.724;21.276;2023-04-15T21:26:10;100030.19;;;11.11;nan
46408;BME280;32110;45.724;21.276;2023-04-15T21:28:35;100041.81;;;11.15;nan
46408;BME280;32110;45.724;21.276;2023-04-15T21:31:01;100044.38;;;11.10;nan
46408;BME280;32110;45.724;21.276;2023-04-15T21:33:26;100031.13;;;11.05;nan
46408;BME280;32110;45.724;21.276;2023-04-15T21:35:55;100045.00;;;11.00;nan
46408;BME280;32110;45.724;21.276;2023-04-15T21:38:23;100043.63;;;10.98;nan
46408;BME280;32110;45.724;21.276;2023-04-15T21:40:48;100047.44;;;10.90;nan
46408;BME280;32110;45.724;21.276;2023-04-15T21:43:16;100048.72;;;10.88;nan
46408;BME280;32110;45.724;21.276;2023-04-15T21:45:42;100040.38;;;10.79;nan
46408;BME280;32110;45.724;21.276;2023-04-15T21:48:08;100048.63;;;10.82;nan
46408;BME280;32110;45.724;21.276;2023-04-15T21:50:35;100029.31;;;10.65;nan
46408;BME280;32110;45.724;21.276;2023-04-15T21:53:01;100052.41;;;10.75;nan
46408;BME280;32110;45.724;21.276;2023-04-15T21:55:27;100046.97;;;10.64;nan
46408;BME280;32110;45.724;21.276;2023-04-15T21:57:52;100045.38;;;10.63;nan
46408;BME280;32110;45.724;21.276;2023-04-15T22:00:18;100038.09;;;10.54;nan
46408;BME280;32110;45.724;21.276;2023-04-15T22:02:46;100041.25;;;10.56;nan
46408;BME280;32110;45.724;21.276;2023-04-15T22:05:11;100047.78;;;10.53;nan
46408;BME280;32110;45.724;21.276;2023-04-15T22:07:36;100038.22;;;10.47;nan
46408;BME280;32110;45.724;21.276;2023-04-15T22:10:02;100035.38;;;10.37;nan
46408;BME280;32110;45.724;21.276;2023-04-15T22:12:27;100038.22;;;10.35;nan
46408;BME280;32110;45.724;21.276;2023-04-15T22:14:54;100039.72;;;10.31;nan
46408;BME280;32110;45.724;21.276;2023-04-15T22:17:20;100047.03;;;10.29;nan
46408;BME280;32110;45.724;21.276;2023-04-15T22:19:45;100049.66;;;10.29;nan
46408;BME280;32110;45.724;21.276;2023-04-15T22:22:11;100048.16;;;10.21;nan
46408;BME280;32110;45.724;21.276;2023-04-15T22:24:36;100044.63;;;10.16;nan
46408;BME280;32110;45.724;21.276;2023-04-15T22:27:02;100043.97;;;10.09;nan
46408;BME280;32110;45.724;21.276;2023-04-15T22:29:27;100034.69;;;9.94;nan
46408;BME280;32110;45.724;21.276;2023-04-15T22:31:53;100046.22;;;9.93;nan
46408;BME280;32110;45.724;21.276;2023-04-15T22:34:19;100038.91;;;9.84;nan
46408;BME280;32110;45.724;21.276;2023-04-15T22:36:49;100042.38;;;9.84;nan
46408;BME280;32110;45.724;21.276;2023-04-15T22:39:15;100041.78;;;9.82;nan
46408;BME280;32110;45.724;21.276;2023-04-15T22:41:41;100046.94;;;9.77;nan
46408;BME280;32110;45.724;21.276;2023-04-15T22:44:07;100044.16;;;9.72;nan
46408;BME280;32110;45.724;21.276;2023-04-15T22:46:32;100048.31;;;9.68;nan
46408;BME280;32110;45.724;21.276;2023-04-15T22:48:57;100038.34;;;9.58;nan
46408;BME280;32110;45.724;21.276;2023-04-15T22:51:23;100041.19;;;9.56;nan
46408;BME280;32110;45.724;21.276;2023-04-15T22:53:51;100049.06;;;9.56;nan
46408;BME280;32110;45.724;21.276;2023-04-15T22:56:20;100044.16;;;9.48;nan
46408;BME280;32110;45.724;21.276;2023-04-15T22:58:46;100050.88;;;9.44;nan
46408;BME280;32110;45.724;21.276;2023-04-15T23:01:11;100032.56;;;9.26;nan
46408;BME280;32110;45.724;21.276;2023-04-15T23:03:37;100058.75;;;9.32;nan
46408;BME280;32110;45.724;21.276;2023-04-15T23:06:02;100036.91;;;9.20;nan
46408;BME280;32110;45.724;21.276;2023-04-15T23:08:28;100034.34;;;9.13;nan
46408;BME280;32110;45.724;21.276;2023-04-15T23:10:53;100048.75;;;9.11;nan
46408;BME280;32110;45.724;21.276;2023-04-15T23:13:18;100045.31;;;9.10;nan
46408;BME280;32110;45.724;21.276;2023-04-15T23:15:44;100051.94;;;9.13;nan
46408;BME280;32110;45.724;21.276;2023-04-15T23:18:10;100050.44;;;9.05;nan
46408;BME280;32110;45.724;21.276;2023-04-15T23:20:35;100030.78;;;8.96;nan
46408;BME280;32110;45.724;21.276;2023-04-15T23:23:00;100042.66;;;8.99;nan
46408;BME280;32110;45.724;21.276;2023-04-15T23:25:26;100049.50;;;9.00;nan
46408;BME280;32110;45.724;21.276;2023-04-15T23:27:51;100047.66;;;9.00;nan
46408;BME280;32110;45.724;21.276;2023-04-15T23:30:19;100040.25;;;8.97;nan
46408;BME280;32110;45.724;21.276;2023-04-15T23:32:45;100048.34;;;8.96;nan
46408;BME280;32110;45.724;21.276;2023-04-15T23:35:10;100048.56;;;8.94;nan
46408;BME280;32110;45.724;21.276;2023-04-15T23:37:36;100038.72;;;8.89;nan
46408;BME280;32110;45.724;21.276;2023-04-15T23:40:01;100048.78;;;8.92;nan
46408;BME280;32110;45.724;21.276;2023-04-15T23:42:26;100044.13;;;8.94;nan
46408;BME280;32110;45.724;21.276;2023-04-15T23:44:52;100021.34;;;8.77;nan
46408;BME280;32110;45.724;21.276;2023-04-15T23:47:17;100028.09;;;8.84;nan
46408;BME280;32110;45.724;21.276;2023-04-15T23:49:45;100011.63;;;8.77;nan
46408;BME280;32110;45.724;21.276;2023-04-15T23:52:10;100041.28;;;8.96;nan
46408;BME280;32110;45.724;21.276;2023-04-15T23:54:36;100036.03;;;8.96;nan
46408;BME280;32110;45.724;21.276;2023-04-15T23:57:01;100032.34;;;8.97;nan
46408;BME280;32110;45.724;21.276;2023-04-15T23:59:27;100031.09;;;9.00;nan
